createdAt,value
2023-10-19T00:01:35.011Z,9.73
2023-10-19T00:06:37.696Z,9.71
2023-10-19T00:11:41.672Z,9.69
2023-10-19T00:16:45.620Z,9.68
2023-10-19T00:21:55.963Z,9.73
2023-10-19T00:26:57.361Z,9.76
2023-10-19T00:31:59.484Z,9.80
2023-10-19T00:37:08.681Z,9.84
2023-10-19T00:42:10.896Z,9.87
2023-10-19T00:47:16.034Z,9.90
2023-10-19T00:52:21.014Z,9.93
2023-10-19T00:57:33.273Z,9.97
2023-10-19T01:02:35.388Z,9.99
2023-10-19T01:07:39.836Z,10.04
2023-10-19T01:12:44.501Z,10.11
2023-10-19T01:17:47.273Z,10.18
2023-10-19T01:22:54.896Z,10.26
2023-10-19T01:27:58.870Z,10.33
2023-10-19T01:33:00.372Z,10.39
2023-10-19T01:38:01.803Z,10.42
2023-10-19T01:43:03.565Z,10.47
2023-10-19T01:48:05.145Z,10.51
2023-10-19T01:53:16.628Z,10.52
2023-10-19T01:58:18.196Z,10.54
2023-10-19T02:03:22.077Z,10.57
2023-10-19T02:08:26.577Z,10.60
2023-10-19T02:13:28.042Z,10.63
2023-10-19T02:18:29.572Z,10.62
2023-10-19T02:23:30.926Z,10.63
2023-10-19T02:28:32.994Z,10.64
2023-10-19T02:33:34.554Z,10.67
2023-10-19T02:38:36.679Z,10.69
2023-10-19T02:43:38.955Z,10.72
2023-10-19T02:48:45.384Z,10.73
2023-10-19T02:53:47.920Z,10.72
2023-10-19T02:58:52.361Z,10.73
2023-10-19T03:03:56.047Z,10.73
2023-10-19T03:09:02.218Z,10.73
2023-10-19T03:14:06.167Z,10.70
2023-10-19T03:19:08.913Z,10.69
2023-10-19T03:24:15.111Z,10.69
2023-10-19T03:29:24.202Z,10.67
2023-10-19T03:34:25.780Z,10.66
2023-10-19T03:39:27.346Z,10.63
2023-10-19T03:44:40.211Z,10.66
2023-10-19T03:49:42.291Z,10.66
2023-10-19T03:54:44.282Z,10.64
2023-10-19T03:59:47.035Z,10.63
2023-10-19T04:04:53.432Z,10.63
2023-10-19T04:10:07.854Z,10.62
2023-10-19T04:15:12.227Z,10.60
2023-10-19T04:20:17.573Z,10.54
2023-10-19T04:25:27.097Z,10.49
2023-10-19T04:30:29.015Z,10.40
2023-10-19T04:35:35.368Z,10.31
2023-10-19T04:40:37.142Z,10.27
2023-10-19T04:45:40.545Z,10.23
2023-10-19T04:50:42.991Z,10.18
2023-10-19T04:55:46.557Z,10.15
2023-10-19T05:00:47.924Z,10.10
2023-10-19T05:05:49.313Z,10.07
2023-10-19T05:10:50.778Z,10.03
2023-10-19T05:15:54.198Z,9.98
2023-10-19T05:20:58.550Z,9.92
2023-10-19T05:26:04.188Z,9.90
2023-10-19T05:31:05.697Z,9.90
2023-10-19T05:36:07.237Z,9.90
2023-10-19T05:41:08.794Z,9.93
2023-10-19T05:46:11.805Z,9.93
2023-10-19T05:51:15.570Z,9.94
2023-10-19T05:56:18.106Z,9.97
2023-10-19T06:01:19.748Z,9.96
2023-10-19T06:06:21.271Z,9.94
2023-10-19T06:11:23.328Z,9.94
2023-10-19T06:16:25.164Z,9.95
2023-10-19T06:21:26.635Z,9.96
2023-10-19T06:26:28.080Z,10.00
2023-10-19T06:31:30.576Z,10.03
2023-10-19T06:36:32.345Z,10.08
2023-10-19T06:41:33.835Z,10.11
2023-10-19T06:46:37.161Z,10.16
2023-10-19T06:51:38.784Z,10.17
2023-10-19T06:56:40.245Z,10.16
2023-10-19T07:01:41.687Z,10.13
2023-10-19T07:06:43.133Z,10.10
2023-10-19T07:11:45.782Z,10.08
2023-10-19T07:16:47.202Z,10.07
2023-10-19T07:21:49.811Z,10.06
2023-10-19T07:27:03.054Z,10.06
2023-10-19T07:32:05.509Z,10.06
2023-10-19T07:37:08.337Z,10.06
2023-10-19T07:42:09.722Z,10.07
2023-10-19T07:47:13.191Z,10.12
2023-10-19T07:52:15.573Z,10.18
2023-10-19T07:57:16.948Z,10.25
2023-10-19T08:02:18.788Z,10.30
2023-10-19T08:07:20.584Z,10.36
2023-10-19T08:12:23.257Z,10.41
2023-10-19T08:17:24.612Z,10.43
2023-10-19T08:22:28.149Z,10.46
2023-10-19T08:27:30.240Z,10.47
2023-10-19T08:32:33.780Z,10.51
2023-10-19T08:37:35.587Z,10.56
2023-10-19T08:42:37.705Z,10.60
2023-10-19T08:47:41.887Z,10.63
2023-10-19T08:52:44.165Z,10.64
2023-10-19T08:57:46.383Z,10.70
2023-10-19T09:02:47.790Z,10.80
2023-10-19T09:08:01.136Z,10.93
2023-10-19T09:13:10.063Z,11.03
2023-10-19T09:18:17.814Z,11.14
2023-10-19T09:23:22.232Z,11.26
2023-10-19T09:28:25.233Z,11.37
2023-10-19T09:33:27.799Z,11.51
2023-10-19T09:38:29.243Z,11.58
2023-10-19T09:43:40.185Z,11.64
2023-10-19T09:48:46.646Z,11.70
2023-10-19T09:53:54.458Z,11.68
2023-10-19T09:59:03.194Z,11.75
2023-10-19T10:04:07.097Z,11.78
2023-10-19T10:09:12.800Z,11.75
2023-10-19T10:14:22.532Z,11.77
2023-10-19T10:19:25.663Z,11.85
2023-10-19T10:24:27.062Z,11.89
2023-10-19T10:29:29.219Z,11.90
2023-10-19T10:34:43.635Z,11.94
2023-10-19T10:39:46.136Z,12.01
2023-10-19T10:44:48.982Z,12.14
2023-10-19T10:49:51.345Z,12.28
2023-10-19T10:54:53.525Z,12.44
2023-10-19T11:00:05.257Z,12.65
2023-10-19T11:05:08.471Z,12.77
2023-10-19T11:10:11.168Z,12.91
2023-10-19T11:15:12.580Z,13.08
2023-10-19T11:20:21.966Z,13.25
2023-10-19T11:25:23.420Z,13.39
2023-10-19T11:30:25.853Z,13.47
2023-10-19T11:35:28.641Z,13.45
2023-10-19T11:40:30.076Z,13.46
2023-10-19T11:45:31.599Z,13.49
2023-10-19T11:50:33.014Z,13.48
2023-10-19T11:55:34.419Z,13.45
2023-10-19T12:00:38.966Z,13.45
2023-10-19T12:05:40.530Z,13.40
2023-10-19T12:10:42.001Z,13.35
2023-10-19T12:15:46.970Z,13.35
2023-10-19T12:20:48.591Z,13.43
2023-10-19T12:25:57.850Z,13.49
2023-10-19T12:30:59.570Z,13.58
2023-10-19T12:36:01.039Z,13.62
2023-10-19T12:41:03.712Z,13.62
2023-10-19T12:46:05.178Z,13.58
2023-10-19T12:51:10.122Z,13.62
2023-10-19T12:56:11.796Z,13.66
2023-10-19T13:01:20.045Z,13.68
2023-10-19T13:06:21.549Z,13.77
2023-10-19T13:11:24.647Z,13.95
2023-10-19T13:16:26.442Z,14.06
2023-10-19T13:21:33.507Z,14.10
2023-10-19T13:26:35.525Z,14.12
2023-10-19T13:31:37.011Z,14.16
2023-10-19T13:36:39.994Z,14.10
2023-10-19T13:41:41.396Z,14.10
2023-10-19T13:46:42.889Z,14.16
2023-10-19T13:51:44.256Z,14.18
2023-10-19T13:56:46.450Z,14.08
2023-10-19T14:01:47.904Z,13.99
2023-10-19T14:06:50.881Z,13.94
2023-10-19T14:11:52.419Z,13.93
2023-10-19T14:16:54.047Z,13.90
2023-10-19T14:21:55.467Z,13.88
2023-10-19T14:26:56.991Z,13.86
2023-10-19T14:31:58.483Z,13.86
2023-10-19T14:36:59.912Z,13.84
2023-10-19T14:42:01.837Z,13.84
2023-10-19T14:47:05.343Z,13.82
2023-10-19T14:52:06.794Z,13.75
2023-10-19T14:57:08.982Z,13.64
2023-10-19T15:02:13.744Z,13.56
2023-10-19T15:07:15.278Z,13.48
2023-10-19T15:12:16.746Z,13.39
2023-10-19T15:17:18.296Z,13.32
2023-10-19T15:22:19.898Z,13.24
2023-10-19T15:27:21.459Z,13.16
2023-10-19T15:32:23.592Z,13.09
2023-10-19T15:37:25.255Z,13.00
2023-10-19T15:42:27.045Z,12.89
2023-10-19T15:47:28.785Z,12.85
2023-10-19T15:52:33.018Z,12.81
2023-10-19T15:57:35.072Z,12.78
2023-10-19T16:02:36.622Z,12.70
2023-10-19T16:07:40.643Z,12.64
2023-10-19T16:12:46.219Z,12.59
2023-10-19T16:17:49.534Z,12.54
2023-10-19T16:22:52.992Z,12.51
2023-10-19T16:27:55.388Z,12.52
2023-10-19T16:32:57.890Z,12.53
2023-10-19T16:38:00.619Z,12.55
2023-10-19T16:43:12.217Z,12.56
2023-10-19T16:48:41.604Z,12.54
2023-10-19T16:53:45.462Z,12.51
2023-10-19T16:58:57.583Z,12.50
2023-10-19T17:03:59.645Z,12.48
2023-10-19T17:09:08.687Z,12.47
2023-10-19T17:14:10.679Z,12.47
2023-10-19T17:19:12.198Z,12.50
2023-10-19T17:24:13.537Z,12.50
2023-10-19T17:29:14.895Z,12.47
2023-10-19T17:34:16.280Z,12.47
2023-10-19T17:39:17.756Z,12.50
2023-10-19T17:44:28.153Z,12.48
2023-10-19T17:49:34.443Z,12.50
2023-10-19T17:55:21.406Z,12.50
2023-10-19T18:00:22.858Z,12.44
2023-10-19T18:05:25.355Z,12.43
2023-10-19T18:10:29.790Z,12.43
2023-10-19T18:15:32.614Z,12.41
2023-10-19T18:20:36.020Z,12.38
2023-10-19T18:25:43.160Z,12.34
2023-10-19T18:30:45.504Z,12.32
2023-10-19T18:35:51.167Z,12.31
2023-10-19T18:40:58.229Z,12.31
2023-10-19T18:46:00.464Z,12.30
2023-10-19T18:51:02.147Z,12.32
2023-10-19T18:56:04.474Z,12.34
2023-10-19T19:01:06.683Z,12.34
2023-10-19T19:06:08.274Z,12.31
2023-10-19T19:11:17.355Z,12.27
2023-10-19T19:16:19.916Z,12.27
2023-10-19T19:21:24.611Z,12.25
2023-10-19T19:26:31.007Z,12.25
2023-10-19T19:31:38.915Z,12.25
2023-10-19T19:36:41.356Z,12.24
2023-10-19T19:41:43.995Z,12.25
2023-10-19T19:46:45.772Z,12.27
2023-10-19T19:51:47.260Z,12.30
2023-10-19T19:56:50.431Z,12.29
2023-10-19T20:01:52.011Z,12.29
2023-10-19T20:06:53.820Z,12.31
2023-10-19T20:11:55.435Z,12.32
2023-10-19T20:16:57.151Z,12.33
2023-10-19T20:21:58.751Z,12.33
2023-10-19T20:27:00.240Z,12.34
2023-10-19T20:32:02.163Z,12.35
2023-10-19T20:37:03.671Z,12.34
2023-10-19T20:42:08.014Z,12.35
2023-10-19T20:47:10.052Z,12.37
2023-10-19T20:52:11.701Z,12.37
2023-10-19T20:57:13.174Z,12.37
2023-10-19T21:02:14.913Z,12.38
2023-10-19T21:07:18.714Z,12.39
2023-10-19T21:12:20.162Z,12.38
2023-10-19T21:17:21.571Z,12.37
2023-10-19T21:22:22.966Z,12.38
2023-10-19T21:27:24.347Z,12.36
2023-10-19T21:32:25.987Z,12.38
2023-10-19T21:37:27.474Z,12.38
2023-10-19T21:42:28.866Z,12.38
2023-10-19T21:47:31.408Z,12.39
2023-10-19T21:52:32.891Z,12.42
2023-10-19T21:57:34.967Z,12.44
2023-10-19T22:02:41.414Z,12.47
2023-10-19T22:07:46.780Z,12.48
2023-10-19T22:12:52.230Z,12.50
2023-10-19T22:17:53.648Z,12.53
2023-10-19T22:22:55.354Z,12.54
2023-10-19T22:27:56.856Z,12.54
2023-10-19T22:32:58.306Z,12.51
2023-10-19T22:37:59.711Z,12.50
2023-10-19T22:43:01.173Z,12.52
2023-10-19T22:48:03.568Z,12.54
2023-10-19T22:53:05.370Z,12.54
2023-10-19T22:58:06.988Z,12.54
2023-10-19T23:03:10.143Z,12.51
2023-10-19T23:08:13.261Z,12.52
2023-10-19T23:13:18.215Z,12.54
2023-10-19T23:18:19.703Z,12.54
2023-10-19T23:23:22.982Z,12.55
2023-10-19T23:28:24.564Z,12.56
2023-10-19T23:33:25.984Z,12.56
2023-10-19T23:38:27.891Z,12.52
2023-10-19T23:43:31.588Z,12.52
2023-10-19T23:48:32.995Z,12.55
2023-10-19T23:53:34.522Z,12.55
2023-10-19T23:58:35.961Z,12.56
